createdAt,value
2016-05-26T00:00:01.980Z,13.49
2016-05-26T00:01:02.014Z,13.35
2016-05-26T00:02:02.064Z,13.28
2016-05-26T00:03:02.237Z,13.31
2016-05-26T00:04:01.976Z,13.27
2016-05-26T00:05:02.150Z,13.2
2016-05-26T00:06:02.184Z,13.19
2016-05-26T00:07:02.217Z,13.18
2016-05-26T00:08:02.111Z,13.15
2016-05-26T00:09:02.286Z,13.23
2016-05-26T00:10:02.335Z,13.16
2016-05-26T00:11:02.353Z,13.22
2016-05-26T00:12:02.402Z,13.11
2016-05-26T00:13:02.280Z,12.98
2016-05-26T00:14:02.456Z,12.98
2016-05-26T00:15:02.489Z,13
2016-05-26T00:16:02.523Z,13.04
2016-05-26T00:17:02.557Z,13.03
2016-05-26T00:18:02.857Z,13.09
2016-05-26T00:19:02.625Z,13.15
2016-05-26T00:20:03.003Z,13.19
2016-05-26T00:21:02.536Z,13.16
2016-05-26T00:22:02.571Z,13.13
2016-05-26T00:23:02.605Z,13.13
2016-05-26T00:24:02.794Z,13.13
2016-05-26T00:25:02.891Z,13.22
2016-05-26T00:26:02.862Z,13.18
2016-05-26T00:27:02.912Z,13.11
2016-05-26T00:28:02.930Z,13.04
2016-05-26T00:29:02.979Z,13.01
2016-05-26T00:30:02.998Z,13.03
2016-05-26T00:31:03.032Z,12.94
2016-05-26T00:32:03.081Z,12.94
2016-05-26T00:33:03.225Z,12.97
2016-05-26T00:34:03.134Z,12.95
2016-05-26T00:35:03.184Z,12.95
2016-05-26T00:36:03.218Z,12.91
2016-05-26T00:37:03.252Z,12.91
2016-05-26T00:38:03.114Z,12.86
2016-05-26T00:39:03.304Z,12.9
2016-05-26T00:40:03.337Z,12.86
2016-05-26T00:41:03.215Z,12.86
2016-05-26T00:42:03.406Z,12.9
2016-05-26T00:43:03.439Z,12.9
2016-05-26T00:44:03.473Z,12.85
2016-05-26T00:45:03.507Z,12.91
2016-05-26T00:46:03.541Z,12.91
2016-05-26T00:47:03.575Z,12.93
2016-05-26T00:48:03.453Z,12.87
2016-05-26T00:49:03.658Z,12.91
2016-05-26T00:50:03.677Z,12.94
2016-05-26T00:51:03.555Z,12.94
2016-05-26T00:52:03.588Z,12.93
2016-05-26T00:53:03.779Z,12.97
2016-05-26T00:54:03.813Z,12.98
2016-05-26T00:55:03.893Z,12.93
2016-05-26T00:56:03.724Z,12.98
2016-05-26T00:57:03.915Z,13.05
2016-05-26T00:58:03.793Z,12.95
2016-05-26T00:59:03.998Z,12.98
2016-05-26T01:00:04.016Z,13.01
2016-05-26T01:01:04.051Z,12.98
2016-05-26T01:02:04.084Z,13
2016-05-26T01:03:04.134Z,13.01
2016-05-26T01:04:04.152Z,13
2016-05-26T01:05:04.187Z,13.01
2016-05-26T01:06:04.220Z,12.94
2016-05-26T01:07:04.254Z,13
2016-05-26T01:08:04.131Z,12.93
2016-05-26T01:09:04.322Z,13.01
2016-05-26T01:10:04.356Z,13
2016-05-26T01:11:04.233Z,13.03
2016-05-26T01:12:04.424Z,13.08
2016-05-26T01:13:04.458Z,13.12
2016-05-26T01:14:04.491Z,13.19
2016-05-26T01:15:04.385Z,13.18
2016-05-26T01:16:04.575Z,13.2
2016-05-26T01:17:04.594Z,13.15
2016-05-26T01:18:05.064Z,13.13
2016-05-26T01:19:04.349Z,13.27
2016-05-26T01:20:04.695Z,13.3
2016-05-26T01:21:04.573Z,13.25
2016-05-26T01:22:04.763Z,13.37
2016-05-26T01:23:04.796Z,13.44
2016-05-26T01:24:04.831Z,13.46
2016-05-26T01:25:04.865Z,13.56
2016-05-26T01:26:04.899Z,13.52
2016-05-26T01:27:04.932Z,13.57
2016-05-26T01:28:04.966Z,13.57
2016-05-26T01:29:05.001Z,13.6
2016-05-26T01:30:05.034Z,13.62
2016-05-26T01:31:05.069Z,13.59
2016-05-26T01:32:05.102Z,13.52
2016-05-26T01:33:05.152Z,13.52
2016-05-26T01:34:05.014Z,13.52
2016-05-26T01:35:05.048Z,13.53
2016-05-26T01:36:05.238Z,13.56
2016-05-26T01:37:05.273Z,13.47
2016-05-26T01:38:05.307Z,13.49
2016-05-26T01:39:05.340Z,13.54
2016-05-26T01:40:05.374Z,13.49
2016-05-26T01:41:05.423Z,13.59
2016-05-26T01:42:05.458Z,13.54
2016-05-26T01:43:05.476Z,13.49
2016-05-26T01:44:05.353Z,13.52
2016-05-26T01:45:05.544Z,13.5
2016-05-26T01:46:05.577Z,13.46
2016-05-26T01:47:05.627Z,13.44
2016-05-26T01:48:05.849Z,13.35
2016-05-26T01:49:05.694Z,13.46
2016-05-26T01:50:05.729Z,13.52
2016-05-26T01:51:05.747Z,13.47
2016-05-26T01:52:05.797Z,13.41
2016-05-26T01:53:05.831Z,13.52
2016-05-26T01:54:05.865Z,13.52
2016-05-26T01:55:05.883Z,13.52
2016-05-26T01:56:05.761Z,13.52
2016-05-26T01:57:05.952Z,13.52
2016-05-26T01:58:05.985Z,13.46
2016-05-26T01:59:06.019Z,13.52
2016-05-26T02:00:06.068Z,13.52
2016-05-26T02:01:06.102Z,13.56
2016-05-26T02:02:06.137Z,13.49
2016-05-26T02:03:06.748Z,13.63
2016-05-26T02:04:06.188Z,13.52
2016-05-26T02:05:06.222Z,13.5
2016-05-26T02:06:06.257Z,13.52
2016-05-26T02:07:06.306Z,13.5
2016-05-26T02:08:06.028Z,13.53
2016-05-26T02:09:06.217Z,13.49
2016-05-26T02:10:06.251Z,13.52
2016-05-26T02:11:06.114Z,13.46
2016-05-26T02:12:06.475Z,13.52
2016-05-26T02:13:06.182Z,13.5
2016-05-26T02:14:06.528Z,13.59
2016-05-26T02:15:06.577Z,13.67
2016-05-26T02:16:06.611Z,13.6
2016-05-26T02:17:06.489Z,13.7
2016-05-26T02:18:06.680Z,13.59
2016-05-26T02:19:06.698Z,13.62
2016-05-26T02:20:06.747Z,13.57
2016-05-26T02:21:06.781Z,13.52
2016-05-26T02:22:06.816Z,13.39
2016-05-26T02:23:06.833Z,13.46
2016-05-26T02:24:06.867Z,13.37
2016-05-26T02:25:06.760Z,13.38
2016-05-26T02:26:06.935Z,13.37
2016-05-26T02:27:06.969Z,13.38
2016-05-26T02:28:07.002Z,13.37
2016-05-26T02:29:06.896Z,13.38
2016-05-26T02:30:07.087Z,13.39
2016-05-26T02:31:07.120Z,13.42
2016-05-26T02:32:07.154Z,13.41
2016-05-26T02:33:07.298Z,13.42
2016-05-26T02:34:07.223Z,13.46
2016-05-26T02:35:07.101Z,13.49
2016-05-26T02:36:07.290Z,13.49
2016-05-26T02:37:07.324Z,13.39
2016-05-26T02:38:07.359Z,13.47
2016-05-26T02:39:07.392Z,13.46
2016-05-26T02:40:07.426Z,13.52
2016-05-26T02:41:07.460Z,13.54
2016-05-26T02:42:07.478Z,13.5
2016-05-26T02:43:07.528Z,13.49
2016-05-26T02:44:07.562Z,13.56
2016-05-26T02:45:07.642Z,13.49
2016-05-26T02:46:07.739Z,13.52
2016-05-26T02:47:07.413Z,13.46
2016-05-26T02:48:08.119Z,13.63
2016-05-26T02:49:07.747Z,13.59
2016-05-26T02:50:07.765Z,13.53
2016-05-26T02:51:07.799Z,13.49
2016-05-26T02:52:07.692Z,13.52
2016-05-26T02:53:07.711Z,13.47
2016-05-26T02:54:07.808Z,13.5
2016-05-26T02:55:07.842Z,13.52
2016-05-26T02:56:07.656Z,13.5
2016-05-26T02:57:08.003Z,13.42
2016-05-26T02:58:07.881Z,13.47
2016-05-26T02:59:08.071Z,13.49
2016-05-26T03:00:08.105Z,13.52
2016-05-26T03:01:08.138Z,13.46
2016-05-26T03:02:08.173Z,13.53
2016-05-26T03:03:08.222Z,13.42
2016-05-26T03:04:08.240Z,13.57
2016-05-26T03:05:08.274Z,13.52
2016-05-26T03:06:08.152Z,13.44
2016-05-26T03:07:08.201Z,13.37
2016-05-26T03:08:08.377Z,13.41
2016-05-26T03:09:08.254Z,13.27
2016-05-26T03:10:08.444Z,13.3
2016-05-26T03:11:08.478Z,13.31
2016-05-26T03:12:08.512Z,13.16
2016-05-26T03:13:08.562Z,13.23
2016-05-26T03:14:08.581Z,13.03
2016-05-26T03:15:08.629Z,13.01
2016-05-26T03:16:08.648Z,12.97
2016-05-26T03:17:08.682Z,13.05
2016-05-26T03:18:09.059Z,12.95
2016-05-26T03:19:08.750Z,12.86
2016-05-26T03:20:08.799Z,12.9
2016-05-26T03:21:08.833Z,12.78
2016-05-26T03:22:08.852Z,12.8
2016-05-26T03:23:08.885Z,12.73
2016-05-26T03:24:08.919Z,12.78
2016-05-26T03:25:08.953Z,12.6
2016-05-26T03:26:09.002Z,12.54
2016-05-26T03:27:08.865Z,12.53
2016-05-26T03:28:09.055Z,12.57
2016-05-26T03:29:09.089Z,12.5
2016-05-26T03:30:09.123Z,12.57
2016-05-26T03:31:09.157Z,12.58
2016-05-26T03:32:09.191Z,12.54
2016-05-26T03:33:09.757Z,12.55
2016-05-26T03:34:09.274Z,12.55
2016-05-26T03:35:09.307Z,12.6
2016-05-26T03:36:09.171Z,12.6
2016-05-26T03:37:09.376Z,12.49
2016-05-26T03:38:09.410Z,12.55
2016-05-26T03:39:09.428Z,12.57
2016-05-26T03:40:09.462Z,12.46
2016-05-26T03:41:09.496Z,12.42
2016-05-26T03:42:09.530Z,12.37
2016-05-26T03:43:09.579Z,12.4
2016-05-26T03:44:09.598Z,12.32
2016-05-26T03:45:09.616Z,12.24
2016-05-26T03:46:09.509Z,12.29
2016-05-26T03:47:09.700Z,12.24
2016-05-26T03:48:09.609Z,12.27
2016-05-26T03:49:09.768Z,12.32
2016-05-26T03:50:09.802Z,12.2
2016-05-26T03:51:09.836Z,12.31
2016-05-26T03:52:09.869Z,12.27
2016-05-26T03:53:09.888Z,12.43
2016-05-26T03:54:09.938Z,12.39
2016-05-26T03:55:09.972Z,12.42
2016-05-26T03:56:09.833Z,12.42
2016-05-26T03:57:10.024Z,12.43
2016-05-26T03:58:10.057Z,12.4
2016-05-26T03:59:09.935Z,12.43
2016-05-26T04:00:10.141Z,12.43
2016-05-26T04:01:10.175Z,12.45
2016-05-26T04:02:10.209Z,12.49
2016-05-26T04:03:10.243Z,12.55
2016-05-26T04:04:10.277Z,12.61
2016-05-26T04:05:10.296Z,12.64
2016-05-26T04:06:10.329Z,12.61
2016-05-26T04:07:10.207Z,12.61
2016-05-26T04:08:10.397Z,12.58
2016-05-26T04:09:10.462Z,12.55
2016-05-26T04:10:10.465Z,12.58
2016-05-26T04:11:10.498Z,12.54
2016-05-26T04:12:10.532Z,12.5
2016-05-26T04:13:10.410Z,12.54
2016-05-26T04:14:10.445Z,12.47
2016-05-26T04:15:10.634Z,12.39
2016-05-26T04:16:10.668Z,12.39
2016-05-26T04:17:10.702Z,12.43
2016-05-26T04:18:11.331Z,12.57
2016-05-26T04:19:10.771Z,12.53
2016-05-26T04:20:10.803Z,12.58
2016-05-26T04:21:10.838Z,12.57
2016-05-26T04:22:10.559Z,12.61
2016-05-26T04:23:10.906Z,12.75
2016-05-26T04:24:10.940Z,12.7
2016-05-26T04:25:10.817Z,12.75
2016-05-26T04:26:11.008Z,12.76
2016-05-26T04:27:11.042Z,12.75
2016-05-26T04:28:11.091Z,12.83
2016-05-26T04:29:11.110Z,13.01
2016-05-26T04:30:11.144Z,13.18
2016-05-26T04:31:11.177Z,13.33
2016-05-26T04:32:11.211Z,13.31
2016-05-26T04:33:11.261Z,13.31
2016-05-26T04:34:11.279Z,13.35
2016-05-26T04:35:11.313Z,13.27
2016-05-26T04:36:11.362Z,13.28
2016-05-26T04:37:11.397Z,13.15
2016-05-26T04:38:11.416Z,13.16
2016-05-26T04:39:11.449Z,13.15
2016-05-26T04:40:11.483Z,13.11
2016-05-26T04:41:11.360Z,13.13
2016-05-26T04:42:11.551Z,13.09
2016-05-26T04:43:11.570Z,13.03
2016-05-26T04:44:11.618Z,13.08
2016-05-26T04:45:11.668Z,13.04
2016-05-26T04:46:11.687Z,13.04
2016-05-26T04:47:11.720Z,13.12
2016-05-26T04:48:11.770Z,13.08
2016-05-26T04:49:11.789Z,13.18
2016-05-26T04:50:11.666Z,13.19
2016-05-26T04:51:11.887Z,13.15
2016-05-26T04:52:11.890Z,13.28
2016-05-26T04:53:11.925Z,13.33
2016-05-26T04:54:11.818Z,13.25
2016-05-26T04:55:11.991Z,13.33
2016-05-26T04:56:11.870Z,13.35
2016-05-26T04:57:12.076Z,13.44
2016-05-26T04:58:12.094Z,13.41
2016-05-26T04:59:12.144Z,13.5
2016-05-26T05:00:12.161Z,13.5
2016-05-26T05:01:12.039Z,13.54
2016-05-26T05:02:12.246Z,13.49
2016-05-26T05:03:12.138Z,13.52
2016-05-26T05:04:12.297Z,13.59
2016-05-26T05:05:12.190Z,13.7
2016-05-26T05:06:12.365Z,13.68
2016-05-26T05:07:12.416Z,14.1
2016-05-26T05:08:12.449Z,14.48
2016-05-26T05:09:12.467Z,14.91
2016-05-26T05:10:12.517Z,15.24
2016-05-26T05:11:12.551Z,15.55
2016-05-26T05:12:12.429Z,15.72
2016-05-26T05:13:12.619Z,15.86
2016-05-26T05:14:12.653Z,16.31
2016-05-26T05:15:12.531Z,16.56
2016-05-26T05:16:12.721Z,16.89
2016-05-26T05:17:12.754Z,17.15
2016-05-26T05:18:13.038Z,17.42
2016-05-26T05:19:12.681Z,17.44
2016-05-26T05:20:12.872Z,17.22
2016-05-26T05:21:12.906Z,16.79
2016-05-26T05:22:12.939Z,16.41
2016-05-26T05:23:12.974Z,16.33
2016-05-26T05:24:13.008Z,16.24
2016-05-26T05:25:13.057Z,16.23
2016-05-26T05:26:12.919Z,16.21
2016-05-26T05:27:13.109Z,16.2
2016-05-26T05:28:13.003Z,16.32
2016-05-26T05:29:13.037Z,16.28
2016-05-26T05:30:13.227Z,16.24
2016-05-26T05:31:13.277Z,16.43
2016-05-26T05:32:13.295Z,16.43
2016-05-26T05:33:13.547Z,16.56
2016-05-26T05:34:13.378Z,16.51
2016-05-26T05:35:13.413Z,16.87
2016-05-26T05:36:13.446Z,17.11
2016-05-26T05:37:13.168Z,17.38
2016-05-26T05:38:13.513Z,17.48
2016-05-26T05:39:13.563Z,17.65
2016-05-26T05:40:13.441Z,17.86
2016-05-26T05:41:13.632Z,18.28
2016-05-26T05:42:13.665Z,18.73
2016-05-26T05:43:13.699Z,18.81
2016-05-26T05:44:13.733Z,18.74
2016-05-26T05:45:13.798Z,18.52
2016-05-26T05:46:13.817Z,18.1
2016-05-26T05:47:13.851Z,18.01
2016-05-26T05:48:13.979Z,17.92
2016-05-26T05:49:13.934Z,17.95
2016-05-26T05:50:13.984Z,17.86
2016-05-26T05:51:13.862Z,17.9
2016-05-26T05:52:13.895Z,17.71
2016-05-26T05:53:14.085Z,17.36
2016-05-26T05:54:13.978Z,17.11
2016-05-26T05:55:14.153Z,17.04
2016-05-26T05:56:14.203Z,17.11
2016-05-26T05:57:14.252Z,17.09
2016-05-26T05:58:14.130Z,16.78
2016-05-26T05:59:14.336Z,16.64
2016-05-26T06:00:14.354Z,16.53
2016-05-26T06:01:14.389Z,16.42
2016-05-26T06:02:14.438Z,16.54
2016-05-26T06:03:15.347Z,16.6
2016-05-26T06:04:14.522Z,16.47
2016-05-26T06:05:14.555Z,16.36
2016-05-26T06:06:14.589Z,16.41
2016-05-26T06:07:14.623Z,16.41
2016-05-26T06:08:14.657Z,16.53
2016-05-26T06:09:14.535Z,16.43
2016-05-26T06:10:14.741Z,16.26
2016-05-26T06:11:14.634Z,16.08
2016-05-26T06:12:14.824Z,16.17
2016-05-26T06:13:14.702Z,16.1
2016-05-26T06:14:14.876Z,16
2016-05-26T06:15:14.942Z,16.08
2016-05-26T06:16:14.975Z,16.16
2016-05-26T06:17:14.993Z,16.42
2016-05-26T06:18:15.013Z,16.47
2016-05-26T06:19:15.078Z,16.53
2016-05-26T06:20:15.112Z,16.58
2016-05-26T06:21:15.004Z,16.56
2016-05-26T06:22:15.195Z,16.47
2016-05-26T06:23:15.229Z,16.23
2016-05-26T06:24:15.262Z,16.42
2016-05-26T06:25:15.297Z,16.46
2016-05-26T06:26:15.190Z,16.57
2016-05-26T06:27:15.380Z,16.53
2016-05-26T06:28:15.258Z,16.57
2016-05-26T06:29:15.448Z,16.72
2016-05-26T06:30:15.497Z,16.81
2016-05-26T06:31:15.531Z,16.76
2016-05-26T06:32:15.566Z,16.66
2016-05-26T06:33:15.615Z,16.57
2016-05-26T06:34:15.633Z,16.57
2016-05-26T06:35:15.682Z,16.43
2016-05-26T06:36:15.716Z,16.57
2016-05-26T06:37:15.767Z,16.65
2016-05-26T06:38:15.785Z,16.64
2016-05-26T06:39:15.678Z,16.78
2016-05-26T06:40:15.696Z,16.86
2016-05-26T06:41:15.746Z,17.05
2016-05-26T06:42:15.780Z,17.05
2016-05-26T06:43:15.986Z,17.11
2016-05-26T06:44:16.020Z,16.9
2016-05-26T06:45:15.898Z,16.76
2016-05-26T06:46:16.088Z,16.58
2016-05-26T06:47:16.137Z,16.75
2016-05-26T06:48:16.171Z,16.94
2016-05-26T06:49:16.204Z,17.04
2016-05-26T06:50:16.239Z,17.04
2016-05-26T06:51:16.273Z,17.19
2016-05-26T06:52:16.323Z,17.14
2016-05-26T06:53:16.372Z,16.97
2016-05-26T06:54:16.389Z,16.94
2016-05-26T06:55:16.440Z,17.01
2016-05-26T06:56:16.473Z,17.15
2016-05-26T06:57:16.508Z,17.19
2016-05-26T06:58:16.386Z,17.26
2016-05-26T06:59:16.591Z,17.38
2016-05-26T07:00:16.656Z,17.38
2016-05-26T07:01:16.644Z,17.19
2016-05-26T07:02:16.709Z,17.2
2016-05-26T07:03:16.742Z,17.38
2016-05-26T07:04:16.777Z,17.38
2016-05-26T07:05:16.811Z,17.33
2016-05-26T07:06:16.860Z,17.36
2016-05-26T07:07:16.894Z,17.39
2016-05-26T07:08:16.927Z,17.14
2016-05-26T07:09:16.962Z,17.24
2016-05-26T07:10:16.996Z,17.36
2016-05-26T07:11:17.045Z,17.38
2016-05-26T07:12:17.079Z,17.54
2016-05-26T07:13:17.113Z,17.68
2016-05-26T07:14:17.163Z,17.68
2016-05-26T07:15:17.040Z,17.72
2016-05-26T07:16:17.231Z,17.79
2016-05-26T07:17:17.264Z,17.82
2016-05-26T07:18:17.690Z,17.65
2016-05-26T07:19:17.333Z,17.78
2016-05-26T07:20:17.413Z,17.78
2016-05-26T07:21:17.432Z,17.72
2016-05-26T07:22:17.481Z,17.8
2016-05-26T07:23:17.500Z,17.78
2016-05-26T07:24:17.549Z,17.97
2016-05-26T07:25:17.567Z,18.07
2016-05-26T07:26:17.617Z,18.2
2016-05-26T07:27:17.667Z,18.37
2016-05-26T07:28:17.684Z,18.49
2016-05-26T07:29:17.734Z,18.6
2016-05-26T07:30:17.768Z,18.5
2016-05-26T07:31:17.802Z,18.59
2016-05-26T07:32:17.836Z,18.73
2016-05-26T07:33:18.042Z,18.71
2016-05-26T07:34:17.919Z,18.62
2016-05-26T07:35:17.813Z,18.59
2016-05-26T07:36:17.862Z,18.26
2016-05-26T07:37:18.052Z,18.31
2016-05-26T07:38:18.111Z,18.26
2016-05-26T07:39:18.185Z,18.37
2016-05-26T07:40:18.260Z,18.52
2016-05-26T07:41:18.318Z,18.53
2016-05-26T07:42:18.368Z,18.68
2016-05-26T07:43:18.411Z,18.66
2016-05-26T07:44:18.454Z,18.86
2016-05-26T07:45:18.340Z,18.84
2016-05-26T07:46:18.242Z,18.77
2016-05-26T07:47:18.611Z,19.21
2016-05-26T07:48:18.491Z,19.49
2016-05-26T07:49:18.716Z,20.22
2016-05-26T07:50:18.722Z,20.51
2016-05-26T07:51:18.775Z,21.05
2016-05-26T07:52:18.811Z,21.57
2016-05-26T07:53:18.847Z,21.69
2016-05-26T07:54:18.897Z,21.73
2016-05-26T07:55:18.777Z,22.07
2016-05-26T07:56:18.968Z,22.02
2016-05-26T07:57:19.018Z,22.91
2016-05-26T07:58:19.051Z,23.34
2016-05-26T07:59:19.102Z,22.84
2016-05-26T08:00:19.136Z,23.25
2016-05-26T08:01:19.029Z,23.81
2016-05-26T08:02:19.236Z,24.54
2016-05-26T08:03:19.035Z,25.11
2016-05-26T08:04:19.304Z,24.55
2016-05-26T08:05:19.353Z,23.77
2016-05-26T08:06:19.403Z,23.31
2016-05-26T08:07:19.437Z,23.59
2016-05-26T08:08:19.485Z,24.02
2016-05-26T08:09:19.521Z,24.57
2016-05-26T08:10:19.571Z,24.99
2016-05-26T08:11:19.463Z,24.69
2016-05-26T08:12:19.497Z,24.53
2016-05-26T08:13:19.703Z,23.99
2016-05-26T08:14:19.752Z,23.77
2016-05-26T08:15:19.787Z,24.39
2016-05-26T08:16:19.837Z,24.98
2016-05-26T08:17:19.870Z,25.36
2016-05-26T08:18:19.762Z,24.92
2016-05-26T08:19:19.970Z,24.73
2016-05-26T08:20:20.003Z,23.44
2016-05-26T08:21:20.053Z,22.9
2016-05-26T08:22:20.086Z,22.68
2016-05-26T08:23:20.151Z,21.93
2016-05-26T08:24:20.186Z,21.67
2016-05-26T08:25:20.235Z,21.43
2016-05-26T08:26:20.284Z,20.56
2016-05-26T08:27:20.319Z,20.39
2016-05-26T08:28:20.196Z,20.13
2016-05-26T08:29:20.417Z,19.89
2016-05-26T08:30:20.452Z,19.7
2016-05-26T08:31:20.501Z,19.63
2016-05-26T08:32:20.238Z,19.39
2016-05-26T08:33:20.601Z,19.39
2016-05-26T08:34:20.618Z,19.27
2016-05-26T08:35:20.652Z,18.95
2016-05-26T08:36:20.561Z,18.86
2016-05-26T08:37:20.752Z,18.78
2016-05-26T08:38:20.630Z,18.89
2016-05-26T08:39:20.836Z,19.58
2016-05-26T08:40:20.884Z,19.86
2016-05-26T08:41:20.919Z,20.03
2016-05-26T08:42:20.969Z,20.18
2016-05-26T08:43:21.002Z,20.44
2016-05-26T08:44:21.052Z,20.55
2016-05-26T08:45:21.085Z,20.7
2016-05-26T08:46:21.120Z,20.78
2016-05-26T08:47:21.013Z,20.63
2016-05-26T08:48:21.469Z,20.32
2016-05-26T08:49:21.253Z,20.03
2016-05-26T08:50:21.303Z,19.84
2016-05-26T08:51:21.337Z,19.69
2016-05-26T08:52:21.386Z,19.52
2016-05-26T08:53:21.420Z,19.31
2016-05-26T08:54:21.469Z,19.34
2016-05-26T08:55:21.347Z,19.3
2016-05-26T08:56:21.537Z,19.27
2016-05-26T08:57:23.447Z,19.08
2016-05-26T08:58:21.620Z,19.07
2016-05-26T08:59:21.670Z,18.92
2016-05-26T09:00:21.705Z,18.74
2016-05-26T09:01:21.753Z,18.53
2016-05-26T09:02:21.631Z,18.93
2016-05-26T09:03:21.775Z,19.44
2016-05-26T09:04:21.871Z,19.85
2016-05-26T09:05:21.921Z,20.31
2016-05-26T09:06:21.955Z,20
2016-05-26T09:07:21.832Z,20.11
2016-05-26T09:08:22.038Z,20.4
2016-05-26T09:09:22.072Z,20.5
2016-05-26T09:10:22.106Z,20.39
2016-05-26T09:11:22.155Z,20.18
2016-05-26T09:12:22.190Z,20.7
2016-05-26T09:13:22.239Z,21.57
2016-05-26T09:14:22.273Z,22.55
2016-05-26T09:15:22.323Z,22.72
2016-05-26T09:16:22.373Z,22.2
2016-05-26T09:17:22.406Z,23.1
2016-05-26T09:18:22.299Z,24.17
2016-05-26T09:19:22.490Z,24.92
2016-05-26T09:20:22.367Z,25.75
2016-05-26T09:21:22.573Z,26.44
2016-05-26T09:22:22.467Z,26.31
2016-05-26T09:23:22.657Z,26.19
2016-05-26T09:24:22.707Z,26.4
2016-05-26T09:25:22.739Z,26.65
2016-05-26T09:26:22.790Z,27.55
2016-05-26T09:27:22.823Z,27.74
2016-05-26T09:28:22.717Z,27.44
2016-05-26T09:29:22.923Z,27.74
2016-05-26T09:30:22.973Z,27.77
2016-05-26T09:31:23.022Z,27.93
2016-05-26T09:32:22.916Z,27.44
2016-05-26T09:33:22.965Z,27.77
2016-05-26T09:34:23.155Z,27.26
2016-05-26T09:35:23.205Z,27.78
2016-05-26T09:36:23.254Z,28.14
2016-05-26T09:37:23.288Z,27.95
2016-05-26T09:38:23.041Z,27.7
2016-05-26T09:39:23.388Z,26.26
2016-05-26T09:40:23.437Z,25.22
2016-05-26T09:41:23.502Z,24.74
2016-05-26T09:42:23.536Z,23.92
2016-05-26T09:43:23.460Z,23.71
2016-05-26T09:44:23.635Z,24.24
2016-05-26T09:45:23.529Z,24.14
2016-05-26T09:46:23.719Z,24.11
2016-05-26T09:47:23.768Z,24.03
2016-05-26T09:48:24.318Z,23.68
2016-05-26T09:49:23.712Z,23.23
2016-05-26T09:50:23.932Z,22.94
2016-05-26T09:51:23.967Z,22.26
2016-05-26T09:52:24.015Z,22.32
2016-05-26T09:53:23.910Z,22.14
2016-05-26T09:54:23.959Z,22.14
2016-05-26T09:55:24.181Z,22.22
2016-05-26T09:56:24.230Z,21.95
2016-05-26T09:57:24.248Z,22.02
2016-05-26T09:58:24.142Z,22.14
2016-05-26T09:59:24.332Z,21.99
2016-05-26T10:00:24.381Z,21.72
2016-05-26T10:01:24.431Z,21.51
2016-05-26T10:02:24.464Z,21.43
2016-05-26T10:03:24.374Z,22.07
2016-05-26T10:04:24.595Z,22.44
2016-05-26T10:05:24.598Z,22.22
2016-05-26T10:06:24.647Z,22.04
2016-05-26T10:07:24.713Z,22.14
2016-05-26T10:08:24.747Z,22.13
2016-05-26T10:09:24.640Z,22.02
2016-05-26T10:10:24.846Z,22.2
2016-05-26T10:11:24.880Z,22.44
2016-05-26T10:12:24.914Z,22.51
2016-05-26T10:13:24.822Z,22.22
2016-05-26T10:14:24.997Z,21.85
2016-05-26T10:15:24.907Z,21.6
2016-05-26T10:16:25.096Z,21.37
2016-05-26T10:17:25.145Z,21.14
2016-05-26T10:18:25.165Z,20.96
2016-05-26T10:19:25.229Z,20.85
2016-05-26T10:20:25.279Z,20.88
2016-05-26T10:21:25.328Z,20.96
2016-05-26T10:22:25.362Z,21.07
2016-05-26T10:23:25.412Z,20.81
2016-05-26T10:24:25.446Z,20.66
2016-05-26T10:25:25.479Z,20.82
2016-05-26T10:26:25.529Z,21.06
2016-05-26T10:27:25.579Z,20.87
2016-05-26T10:28:25.613Z,20.96
2016-05-26T10:29:25.662Z,21.17
2016-05-26T10:30:25.712Z,21.37
2016-05-26T10:31:25.761Z,21.57
2016-05-26T10:32:25.639Z,21.67
2016-05-26T10:33:25.705Z,21.7
2016-05-26T10:34:25.878Z,21.11
2016-05-26T10:35:25.913Z,21.02
2016-05-26T10:36:25.946Z,20.69
2016-05-26T10:37:26.012Z,20.65
2016-05-26T10:38:26.046Z,20.56
2016-05-26T10:39:26.080Z,20.29
2016-05-26T10:40:26.130Z,20.48
2016-05-26T10:41:26.179Z,20.6
2016-05-26T10:42:26.213Z,20.62
2016-05-26T10:43:26.262Z,20.74
2016-05-26T10:44:26.296Z,20.92
2016-05-26T10:45:26.206Z,20.9
2016-05-26T10:46:26.380Z,20.93
2016-05-26T10:47:26.430Z,20.81
2016-05-26T10:48:26.385Z,20.87
2016-05-26T10:49:26.529Z,20.7
2016-05-26T10:50:26.562Z,20.66
2016-05-26T10:51:26.597Z,20.4
2016-05-26T10:52:26.646Z,20.48
2016-05-26T10:53:26.680Z,20.63
2016-05-26T10:54:26.714Z,20.69
2016-05-26T10:55:26.764Z,20.88
2016-05-26T10:56:26.812Z,20.9
2016-05-26T10:57:26.847Z,21.14
2016-05-26T10:58:26.897Z,21.21
2016-05-26T10:59:26.759Z,21.36
2016-05-26T11:00:26.823Z,21.35
2016-05-26T11:01:26.858Z,21.3
2016-05-26T11:02:27.048Z,21.39
2016-05-26T11:03:27.191Z,21.29
2016-05-26T11:04:27.147Z,21.03
2016-05-26T11:05:27.181Z,21.06
2016-05-26T11:06:27.231Z,21.42
2016-05-26T11:07:27.264Z,21.6
2016-05-26T11:08:27.330Z,22
2016-05-26T11:09:27.348Z,21.76
2016-05-26T11:10:27.382Z,21.91
2016-05-26T11:11:27.432Z,21.8
2016-05-26T11:12:27.310Z,22.13
2016-05-26T11:13:27.515Z,22.25
2016-05-26T11:14:27.565Z,22.25
2016-05-26T11:15:27.598Z,22.13
2016-05-26T11:16:27.632Z,22.04
2016-05-26T11:17:27.682Z,21.99
2016-05-26T11:18:28.388Z,22
2016-05-26T11:19:27.782Z,22.15
2016-05-26T11:20:27.815Z,22.22
2016-05-26T11:21:27.693Z,22.25
2016-05-26T11:22:27.899Z,22.47
2016-05-26T11:23:27.948Z,22.54
2016-05-26T11:24:27.982Z,22.55
2016-05-26T11:25:28.048Z,22.57
2016-05-26T11:26:27.909Z,22.53
2016-05-26T11:27:28.115Z,22.55
2016-05-26T11:28:28.148Z,22.45
2016-05-26T11:29:28.199Z,22.39
2016-05-26T11:30:28.233Z,22.48
2016-05-26T11:31:28.282Z,22.32
2016-05-26T11:32:28.159Z,22.39
2016-05-26T11:33:28.334Z,22.44
2016-05-26T11:34:28.415Z,22.39
2016-05-26T11:35:28.450Z,22.22
2016-05-26T11:36:28.499Z,22.13
2016-05-26T11:37:28.220Z,22.26
2016-05-26T11:38:28.583Z,22.33
2016-05-26T11:39:28.616Z,22.6
2016-05-26T11:40:28.697Z,22.63
2016-05-26T11:41:28.716Z,22.68
2016-05-26T11:42:28.750Z,22.83
2016-05-26T11:43:28.643Z,22.96
2016-05-26T11:44:28.833Z,23.06
2016-05-26T11:45:28.898Z,23.09
2016-05-26T11:46:28.760Z,23.37
2016-05-26T11:47:28.810Z,23.73
2016-05-26T11:48:29.485Z,23.61
2016-05-26T11:49:29.049Z,23.76
2016-05-26T11:50:28.943Z,23.62
2016-05-26T11:51:29.149Z,23.32
2016-05-26T11:52:29.199Z,23.08
2016-05-26T11:53:29.232Z,22.98
2016-05-26T11:54:29.126Z,22.83
2016-05-26T11:55:29.315Z,22.76
2016-05-26T11:56:29.366Z,22.65
2016-05-26T11:57:29.399Z,22.91
2016-05-26T11:58:29.448Z,22.93
2016-05-26T11:59:29.499Z,22.9
2016-05-26T12:00:29.532Z,23.06
2016-05-26T12:01:29.597Z,23.32
2016-05-26T12:02:29.631Z,23.31
2016-05-26T12:03:29.743Z,23.18
2016-05-26T12:04:29.715Z,23.32
2016-05-26T12:05:29.748Z,23.31
2016-05-26T12:06:29.798Z,23.28
2016-05-26T12:07:29.848Z,23.46
2016-05-26T12:08:29.881Z,23.39
2016-05-26T12:09:29.932Z,23.61
2016-05-26T12:10:29.997Z,23.5
2016-05-26T12:11:30.030Z,23.48
2016-05-26T12:12:30.080Z,23.68
2016-05-26T12:13:30.114Z,23.88
2016-05-26T12:14:30.148Z,24.14
2016-05-26T12:15:30.197Z,24.3
2016-05-26T12:16:30.247Z,24.53
2016-05-26T12:17:30.312Z,24.69
2016-05-26T12:18:30.596Z,25.1
2016-05-26T12:19:30.240Z,25.13
2016-05-26T12:20:30.414Z,24.88
2016-05-26T12:21:30.479Z,24.73
2016-05-26T12:22:30.513Z,24.74
2016-05-26T12:23:30.562Z,24.13
2016-05-26T12:24:30.457Z,23.96
2016-05-26T12:25:30.662Z,23.73
2016-05-26T12:26:30.711Z,23.92
2016-05-26T12:27:30.762Z,23.88
2016-05-26T12:28:30.795Z,23.8
2016-05-26T12:29:30.704Z,23.69
2016-05-26T12:30:30.895Z,23.84
2016-05-26T12:31:30.928Z,23.74
2016-05-26T12:32:30.821Z,23.17
2016-05-26T12:33:30.715Z,23.56
2016-05-26T12:34:30.906Z,23.81
2016-05-26T12:35:31.111Z,23.69
2016-05-26T12:36:31.019Z,23.73
2016-05-26T12:37:31.195Z,23.66
2016-05-26T12:38:31.104Z,23.39
2016-05-26T12:39:31.153Z,23.39
2016-05-26T12:40:31.031Z,23.12
2016-05-26T12:41:31.377Z,23.25
2016-05-26T12:42:31.270Z,23.23
2016-05-26T12:43:31.319Z,23.43
2016-05-26T12:44:31.354Z,23.39
2016-05-26T12:45:31.560Z,23.2
2016-05-26T12:46:31.625Z,23.43
2016-05-26T12:47:31.658Z,23.47
2016-05-26T12:48:31.724Z,23.34
2016-05-26T12:49:31.586Z,23.25
2016-05-26T12:50:31.791Z,23.06
2016-05-26T12:51:31.826Z,22.88
2016-05-26T12:52:31.875Z,22.55
2016-05-26T12:53:31.941Z,22.29
2016-05-26T12:54:31.959Z,22.48
2016-05-26T12:55:32.008Z,22.54